Flight Track Log - Related Links

Times and Time Zones

All times are in EDT time to prevent confusion due to time zone crossing. See the SWA383 flight status page for this flight to view local times or setup timezone preferences in your user account.

Time Position Orientation Groundspeed Altitude Reporting Facility
EDT Latitude Longitude Course Direction KTS MPH feet Rate Location/Type
Fri 07:07:03 AM 29.6333 -95.2653 150° Southeast 142 163 800  Level Houston Center
Fri 07:07:39 AM 29.6086 -95.2492 150° Southeast 197 227 1,900 2,314 Climbing Houston Center
Fri 07:08:13 AM 29.5819 -95.2303 148° Southeast 212 244 3,500 2,754 Climbing Houston Center
Fri 07:08:40 AM 29.5822 -95.1897 90° East 292 336 4,700 2,754 Climbing Houston Center
Fri 07:09:14 AM 29.5878 -95.1433 82° East 285 328 6,300 3,934 Climbing Houston Center
Fri 07:09:41 AM 29.5981 -95.0917 77° East 300 345 8,700 3,934 Climbing Houston Center
Fri 07:10:15 AM 29.6047 -95.0525 79° East 298 343 10,300 2,617 Climbing Houston Center
Fri 07:11:15 AM 29.6219 -94.9511 79° East 322 371 12,800 3,025 Climbing Houston Center
Fri 07:12:16 AM 29.6397 -94.8394 80° East 351 404 16,400 2,951 Climbing Houston Center
Fri 07:13:17 AM 29.6411 -94.7261 89° East 361 415 18,800 2,430 Climbing Houston Center
Fri 07:14:17 AM 29.6319 -94.6072 95° East 372 428 21,300 2,529 Climbing Houston Center
Fri 07:15:18 AM 29.6194 -94.4594 96° East 386 444 23,900 2,066 Climbing Houston Center
Fri 07:16:19 AM 29.6111 -94.3272 94° East 410 472 25,500 1,525 Climbing Houston Center
Fri 07:17:20 AM 29.6025 -94.1894 94° East 429 494 27,000 1,488 Climbing Houston Center
Fri 07:18:20 AM 29.5969 -94.0625 93° East 446 513 28,500 1,388 Climbing Houston Center
Fri 07:19:21 AM 29.5922 -93.9167 92° East 458 527 29,800 1,279 Climbing Houston Center
Fri 07:20:22 AM 29.5864 -93.7653 92° East 473 544 31,100 1,230 Climbing Houston Center
Fri 07:21:23 AM 29.5781 -93.5817 93° East 484 557 32,300 1,279 Climbing Houston Center
Fri 07:22:24 AM 29.5717 -93.4219 93° East 500 575 33,700 1,279 Climbing Houston Center
Fri 07:23:25 AM 29.5672 -93.2653 92° East 498 573 34,900 1,289 Climbing Houston Center
Fri 07:24:25 AM 29.5617 -93.1083 92° East 496 571 36,300 1,041 Climbing Houston Center
Fri 07:25:26 AM 29.5731 -92.9539 85° East 493 567 37,000 344 Climbing Houston Center
Fri 07:26:27 AM 29.6269 -92.8086 67° East 500 575 37,000  Level Houston Center
Fri 07:27:28 AM 29.6789 -92.6631 68° East 499 574 37,000  Level Houston Center
Fri 07:28:29 AM 29.7319 -92.5183 67° East 495 570 37,000  Level Houston Center
Fri 07:29:31 AM 29.7828 -92.3733 68° East 493 567 37,000  Level Houston Center
Fri 07:30:31 AM 29.8350 -92.2289 67° East 491 565 37,000  Level Houston Center
Fri 07:31:32 AM 29.8956 -92.0575 68° East 487 560 37,000  Level Houston Center
Fri 07:32:33 AM 29.9461 -91.9142 68° East 485 558 37,000  Level Houston Center
Fri 07:33:34 AM 29.9964 -91.7708 68° East 484 557 37,000  Level Houston Center
Fri 07:34:35 AM 30.0492 -91.6253 67° East 488 562 37,000  Level Houston Center
Fri 07:35:36 AM 30.0989 -91.4789 69° East 485 558 37,000  Level Houston Center
Fri 07:36:37 AM 30.1508 -91.3353 67° East 490 564 37,000  Level Houston Center
Fri 07:37:38 AM 30.2008 -91.1900 68° East 489 563 37,000  Level Houston Center
Fri 07:38:39 AM 30.2514 -91.0442 68° East 489 563 37,000  Level Houston Center
Fri 07:39:39 AM 30.3014 -90.8978 68° East 489 563 37,000  Level Houston Center
Fri 07:40:41 AM 30.3511 -90.7517 68° East 489 563 37,000  Level Houston Center
Fri 07:41:42 AM 30.4006 -90.6058 69° East 487 560 37,000  Level Houston Center
Fri 07:42:43 AM 30.4508 -90.4594 68° East 488 562 37,000  Level Houston Center
Fri 07:43:44 AM 30.5000 -90.3119 69° East 490 564 37,000  Level Houston Center
Fri 07:44:45 AM 30.5503 -90.1625 69° East 493 567 37,000  Level Houston Center
Fri 07:45:46 AM 30.6017 -90.0114 68° East 498 573 37,000  Level Houston Center
Fri 07:46:47 AM 30.6628 -89.8281 69° East 500 575 37,000  Level Houston Center
Fri 07:47:48 AM 30.7139 -89.6761 69° East 501 577 37,000  Level Houston Center
Fri 07:48:49 AM 30.7636 -89.5236 69° East 502 578 37,000  Level Houston Center
Fri 07:49:50 AM 30.8119 -89.3703 70° East 503 579 37,000  Level Houston Center
Fri 07:50:51 AM 30.8617 -89.2167 69° East 506 582 37,000  Level Houston Center
Fri 07:51:53 AM 30.9119 -89.0631 69° East 506 582 37,000  Level Houston Center
Fri 07:52:54 AM 30.9592 -88.9128 70° East 504 580 37,000  Level Houston Center
Fri 07:53:55 AM 31.0086 -88.7578 70° East 506 582 37,000  Level Houston Center
Fri 07:54:56 AM 31.0600 -88.6019 69° East 506 582 37,000  Level Houston Center
Fri 07:55:57 AM 31.1164 -88.4506 66° East 508 585 37,000  Level Houston Center
Fri 07:56:41 AM 31.1917 -88.3469 50° Northeast 502 578 37,000  Level Atlanta Center
Fri 07:57:41 AM 31.2714 -88.2125 55° Northeast 494 568 37,000  Level Atlanta Center
Fri 07:58:41 AM 31.3508 -88.0822 54° Northeast 494 568 37,000  Level Atlanta Center
Fri 07:59:01 AM 31.3647 -88.0533 61° Northeast 499 574 37,000  Level Houston Center
Fri 07:59:41 AM 31.4322 -87.9497 53° Northeast 494 568 37,000  Level Atlanta Center
Fri 08:00:41 AM 31.5136 -87.8167 54° Northeast 494 568 37,000  Level Atlanta Center
Fri 08:01:41 AM 31.5925 -87.6883 54° Northeast 494 568 37,000 -350 Level Atlanta Center
Fri 08:02:41 AM 31.6714 -87.5575 55° Northeast 489 563 36,300 -850 Descending Atlanta Center
Fri 08:03:41 AM 31.7503 -87.4261 55° Northeast 489 563 35,300 -900 Descending Atlanta Center
Fri 08:04:41 AM 31.8161 -87.3114 56° Northeast 489 563 34,500 -900 Descending Atlanta Center
Fri 08:05:41 AM 31.8967 -87.1772 55° Northeast 483 556 33,500 -950 Descending Atlanta Center
Fri 08:06:41 AM 31.9750 -87.0453 55° Northeast 483 556 32,600 -900 Descending Atlanta Center
Fri 08:07:41 AM 32.0619 -86.9036 54° Northeast 483 556 31,700 -950 Descending Atlanta Center
Fri 08:08:41 AM 32.1400 -86.7714 55° Northeast 488 562 30,700 -1,100 Descending Atlanta Center
Fri 08:09:41 AM 32.2158 -86.6508 53° Northeast 477 549 29,500 -1,450 Descending Atlanta Center
Fri 08:10:41 AM 32.2828 -86.5375 55° Northeast 452 520 27,800 -1,650 Descending Atlanta Center
Fri 08:11:41 AM 32.3453 -86.4333 55° Northeast 418 481 26,200 -1,550 Descending Atlanta Center
Fri 08:12:41 AM 32.3931 -86.3364 60° Northeast 391 450 24,700 -1,100 Descending Atlanta Center
Fri 08:13:41 AM 32.4514 -86.2319 56° Northeast 381 438 24,000 -350 Descending Atlanta Center
Fri 08:14:41 AM 32.5286 -86.1133 52° Northeast 398 458 24,000  Level Atlanta Center
Fri 08:15:41 AM 32.5994 -85.9892 56° Northeast 427 491 24,000  Level Atlanta Center
Fri 08:16:41 AM 32.6725 -85.8625 56° Northeast 449 517 24,000 -500 Level Atlanta Center
Fri 08:17:41 AM 32.7453 -85.7331 56° Northeast 460 529 23,000 -1,100 Descending Atlanta Center
Fri 08:18:41 AM 32.8178 -85.6108 55° Northeast 460 529 21,800 -1,050 Descending Atlanta Center
Fri 08:19:41 AM 32.8819 -85.4958 56° Northeast 436 502 20,900 -1,350 Descending Atlanta Center
Fri 08:20:41 AM 32.9458 -85.3806 57° Northeast 421 484 19,100 -1,700 Descending Atlanta Center
Fri 08:21:41 AM 33.0094 -85.2750 54° Northeast 409 471 17,500 -1,950 Descending Atlanta Center
Fri 08:22:41 AM 33.0731 -85.1792 52° Northeast 382 440 15,200 -2,150 Descending Atlanta Center
Fri 08:23:41 AM 33.1406 -85.0883 48° Northeast 362 417 13,200 -1,650 Descending Atlanta Center
Fri 08:24:41 AM 33.2039 -85.0022 49° Northeast 349 402 11,900 -1,450 Descending Atlanta Center
Fri 08:25:41 AM 33.2608 -84.9283 47° Northeast 317 365 10,300 -1,450 Descending Atlanta Center
Fri 08:26:41 AM 33.3114 -84.8617 48° Northeast 304 350 9,000 -1,400 Descending Atlanta Center
Fri 08:27:41 AM 33.3661 -84.7975 44° Northeast 289 333 7,500 -1,314 Descending Atlanta Center
Fri 08:28:26 AM 33.4333 -84.7833 10° North 263 303 6,700 -909 Descending Atlanta TRACON
Fri 08:29:20 AM 33.4833 -84.7833 360° North 228 262 6,000 -947 Descending Atlanta TRACON
Fri 08:30:20 AM 33.5500 -84.7667 12° North 225 259 4,900 -800 Descending Atlanta TRACON
Fri 08:31:20 AM 33.6000 -84.7333 29° Northeast 185 213 4,400 -600 Descending Atlanta TRACON
Fri 08:32:20 AM 33.6167 -84.6833 68° East 171 197 3,700 -650 Descending Atlanta TRACON
Fri 08:33:20 AM 33.6167 -84.6333 90° East 160 184 3,100 -368 Descending Atlanta TRACON
Fri 08:34:14 AM 33.6167 -84.5833 90° East 151 174 3,000 -263 Descending Atlanta TRACON
Fri 08:35:14 AM 33.6167 -84.5500 90° East 115 132 2,600 -500 Descending Atlanta TRACON
Fri 08:36:14 AM 33.6167 -84.5000 90° East 107 123 2,000 -600 Descending Atlanta TRACON
Fri 08:37:14 AM 33.6167 -84.4667 90° East 117 135 1,400 -600 Descending Atlanta TRACON
Fri 08:39:00 AM 33.6367 -84.4279 90° East  Level Estimated
Fri 08:46:00 AM 33.6367 -84.4279 301° West  Level Estimated

Login

Don't have an account? Register now (free) for customized features, flight alerts, and more!